Menlow, Texas
Current Conditions -  °F | °C
As of 11:35 AM on Wednesday 26 Nov 2014 (Local Time) from KINJ Reporting Station
Clear Clear  
Wind Chill: 61°   Ceiling: Unl
Heat Index: 61°   Visibility: 10mi
Dew Point: 28°   Wind: 8mph
Humidity: 28%   Direction: 300°WNW
Pressure: 30.18"   Gusts: NA
Location:  31.908°N, 97.0524°W
Report Text: KINJ 261735Z AUTO 30007KT 10SM CLR 16/M02 A3018 RMK AO2 T01601024
Loading
Personal Weather Stations






























Interactive Weather Map New forecast layout! Learn more

10-Day Weather Forecast

Advertisements
Track Severe Weather on mobile